sensor_id;sensor_type;location;lat;lon;timestamp;P1;durP1;ratioP1;P2;durP2;ratioP2
58240;SDS011;45058;55.772;38.224;2022-08-05T00:00:05;40.22;;;24.13;;
58240;SDS011;45058;55.772;38.224;2022-08-05T00:02:32;44.88;;;22.52;;
58240;SDS011;45058;55.772;38.224;2022-08-05T00:04:58;42.47;;;22.27;;
58240;SDS011;45058;55.772;38.224;2022-08-05T00:07:24;44.22;;;23.02;;
58240;SDS011;45058;55.772;38.224;2022-08-05T00:09:50;39.85;;;23.23;;
58240;SDS011;45058;55.772;38.224;2022-08-05T00:12:16;42.97;;;22.58;;
58240;SDS011;45058;55.772;38.224;2022-08-05T00:14:42;38.88;;;24.02;;
58240;SDS011;45058;55.772;38.224;2022-08-05T00:17:08;42.95;;;24.05;;
58240;SDS011;45058;55.772;38.224;2022-08-05T00:19:34;41.05;;;25.13;;
58240;SDS011;45058;55.772;38.224;2022-08-05T00:22:01;35.30;;;24.75;;
58240;SDS011;45058;55.772;38.224;2022-08-05T00:24:27;47.50;;;23.13;;
58240;SDS011;45058;55.772;38.224;2022-08-05T00:26:53;36.85;;;22.08;;
58240;SDS011;45058;55.772;38.224;2022-08-05T00:29:20;38.65;;;22.80;;
58240;SDS011;45058;55.772;38.224;2022-08-05T00:31:47;38.78;;;24.48;;
58240;SDS011;45058;55.772;38.224;2022-08-05T00:34:13;36.08;;;24.15;;
58240;SDS011;45058;55.772;38.224;2022-08-05T00:36:39;39.17;;;26.35;;
58240;SDS011;45058;55.772;38.224;2022-08-05T00:39:05;42.95;;;24.80;;
58240;SDS011;45058;55.772;38.224;2022-08-05T00:41:33;41.00;;;24.70;;
58240;SDS011;45058;55.772;38.224;2022-08-05T00:43:59;32.50;;;23.00;;
58240;SDS011;45058;55.772;38.224;2022-08-05T00:46:25;41.40;;;22.73;;
58240;SDS011;45058;55.772;38.224;2022-08-05T00:48:51;42.85;;;26.25;;
58240;SDS011;45058;55.772;38.224;2022-08-05T00:51:18;33.25;;;25.80;;
58240;SDS011;45058;55.772;38.224;2022-08-05T00:53:45;44.90;;;24.95;;
58240;SDS011;45058;55.772;38.224;2022-08-05T00:56:11;43.25;;;25.13;;
58240;SDS011;45058;55.772;38.224;2022-08-05T00:58:37;45.08;;;25.77;;
58240;SDS011;45058;55.772;38.224;2022-08-05T01:01:03;55.20;;;26.63;;
58240;SDS011;45058;55.772;38.224;2022-08-05T01:03:30;40.08;;;26.40;;
58240;SDS011;45058;55.772;38.224;2022-08-05T01:05:56;47.38;;;28.33;;
58240;SDS011;45058;55.772;38.224;2022-08-05T01:08:22;48.25;;;27.85;;
58240;SDS011;45058;55.772;38.224;2022-08-05T01:10:52;52.97;;;27.30;;
58240;SDS011;45058;55.772;38.224;2022-08-05T01:13:22;55.55;;;29.70;;
58240;SDS011;45058;55.772;38.224;2022-08-05T01:16:02;49.78;;;30.40;;
58240;SDS011;45058;55.772;38.224;2022-08-05T01:18:33;47.55;;;30.10;;
58240;SDS011;45058;55.772;38.224;2022-08-05T01:26:39;58.17;;;31.67;;
58240;SDS011;45058;55.772;38.224;2022-08-05T01:29:15;58.58;;;32.47;;
58240;SDS011;45058;55.772;38.224;2022-08-05T01:31:47;57.13;;;31.58;;
58240;SDS011;45058;55.772;38.224;2022-08-05T01:34:19;56.78;;;31.27;;
58240;SDS011;45058;55.772;38.224;2022-08-05T01:39:37;47.83;;;27.88;;
58240;SDS011;45058;55.772;38.224;2022-08-05T01:42:07;51.10;;;28.25;;
58240;SDS011;45058;55.772;38.224;2022-08-05T01:44:38;54.58;;;29.20;;
58240;SDS011;45058;55.772;38.224;2022-08-05T01:47:04;58.60;;;29.77;;
58240;SDS011;45058;55.772;38.224;2022-08-05T01:49:31;45.65;;;28.08;;
58240;SDS011;45058;55.772;38.224;2022-08-05T01:51:58;46.42;;;27.52;;
58240;SDS011;45058;55.772;38.224;2022-08-05T01:54:38;46.95;;;27.55;;
58240;SDS011;45058;55.772;38.224;2022-08-05T01:57:05;48.55;;;28.15;;
58240;SDS011;45058;55.772;38.224;2022-08-05T01:59:33;47.22;;;28.52;;
58240;SDS011;45058;55.772;38.224;2022-08-05T02:01:59;46.00;;;27.98;;
58240;SDS011;45058;55.772;38.224;2022-08-05T02:04:29;57.65;;;28.98;;
58240;SDS011;45058;55.772;38.224;2022-08-05T02:06:55;45.17;;;27.98;;
58240;SDS011;45058;55.772;38.224;2022-08-05T02:09:22;45.60;;;26.15;;
58240;SDS011;45058;55.772;38.224;2022-08-05T02:14:27;46.92;;;26.40;;
58240;SDS011;45058;55.772;38.224;2022-08-05T02:17:00;50.22;;;25.88;;
58240;SDS011;45058;55.772;38.224;2022-08-05T02:19:30;44.47;;;25.00;;
58240;SDS011;45058;55.772;38.224;2022-08-05T02:22:04;42.80;;;26.08;;
58240;SDS011;45058;55.772;38.224;2022-08-05T02:24:38;44.83;;;26.20;;
58240;SDS011;45058;55.772;38.224;2022-08-05T02:27:07;49.40;;;25.02;;
58240;SDS011;45058;55.772;38.224;2022-08-05T02:29:35;47.70;;;25.52;;
58240;SDS011;45058;55.772;38.224;2022-08-05T02:32:02;40.60;;;25.40;;
58240;SDS011;45058;55.772;38.224;2022-08-05T02:34:30;50.70;;;25.65;;
58240;SDS011;45058;55.772;38.224;2022-08-05T02:36:57;53.28;;;25.55;;
58240;SDS011;45058;55.772;38.224;2022-08-05T02:39:26;42.08;;;25.35;;
58240;SDS011;45058;55.772;38.224;2022-08-05T02:41:54;62.05;;;27.92;;
58240;SDS011;45058;55.772;38.224;2022-08-05T02:44:22;55.08;;;27.13;;
58240;SDS011;45058;55.772;38.224;2022-08-05T02:46:49;47.00;;;28.70;;
58240;SDS011;45058;55.772;38.224;2022-08-05T02:49:16;45.65;;;28.60;;
58240;SDS011;45058;55.772;38.224;2022-08-05T02:51:43;40.90;;;28.88;;
58240;SDS011;45058;55.772;38.224;2022-08-05T02:54:10;47.67;;;29.42;;
58240;SDS011;45058;55.772;38.224;2022-08-05T02:56:38;45.75;;;29.58;;
58240;SDS011;45058;55.772;38.224;2022-08-05T02:59:05;42.58;;;27.77;;
58240;SDS011;45058;55.772;38.224;2022-08-05T03:01:31;52.08;;;30.70;;
58240;SDS011;45058;55.772;38.224;2022-08-05T03:04:00;48.03;;;29.80;;
58240;SDS011;45058;55.772;38.224;2022-08-05T03:06:27;47.17;;;30.23;;
58240;SDS011;45058;55.772;38.224;2022-08-05T03:08:53;52.63;;;28.95;;
58240;SDS011;45058;55.772;38.224;2022-08-05T03:11:20;46.67;;;29.33;;
58240;SDS011;45058;55.772;38.224;2022-08-05T03:13:48;43.17;;;29.15;;
58240;SDS011;45058;55.772;38.224;2022-08-05T03:16:14;53.80;;;29.73;;
58240;SDS011;45058;55.772;38.224;2022-08-05T03:18:41;44.13;;;30.67;;
58240;SDS011;45058;55.772;38.224;2022-08-05T03:21:07;44.10;;;28.90;;
58240;SDS011;45058;55.772;38.224;2022-08-05T03:23:33;47.75;;;28.60;;
58240;SDS011;45058;55.772;38.224;2022-08-05T03:26:00;48.20;;;28.23;;
58240;SDS011;45058;55.772;38.224;2022-08-05T03:28:27;50.55;;;27.75;;
58240;SDS011;45058;55.772;38.224;2022-08-05T03:30:54;36.58;;;25.60;;
58240;SDS011;45058;55.772;38.224;2022-08-05T03:33:21;44.22;;;24.73;;
58240;SDS011;45058;55.772;38.224;2022-08-05T03:35:47;40.63;;;25.50;;
58240;SDS011;45058;55.772;38.224;2022-08-05T03:38:13;38.38;;;26.30;;
58240;SDS011;45058;55.772;38.224;2022-08-05T03:40:43;45.63;;;26.42;;
58240;SDS011;45058;55.772;38.224;2022-08-05T03:43:10;36.00;;;27.42;;
58240;SDS011;45058;55.772;38.224;2022-08-05T03:45:36;37.95;;;26.50;;
58240;SDS011;45058;55.772;38.224;2022-08-05T03:48:02;38.75;;;26.83;;
58240;SDS011;45058;55.772;38.224;2022-08-05T03:50:47;44.47;;;26.52;;
58240;SDS011;45058;55.772;38.224;2022-08-05T03:56:10;39.85;;;26.98;;
58240;SDS011;45058;55.772;38.224;2022-08-05T03:58:39;36.67;;;26.33;;
58240;SDS011;45058;55.772;38.224;2022-08-05T04:01:07;33.72;;;24.25;;
58240;SDS011;45058;55.772;38.224;2022-08-05T04:03:34;39.92;;;26.00;;
58240;SDS011;45058;55.772;38.224;2022-08-05T04:06:03;38.78;;;24.75;;
58240;SDS011;45058;55.772;38.224;2022-08-05T04:08:31;37.17;;;25.35;;
58240;SDS011;45058;55.772;38.224;2022-08-05T04:10:57;35.03;;;26.73;;
58240;SDS011;45058;55.772;38.224;2022-08-05T04:13:25;36.67;;;25.88;;
58240;SDS011;45058;55.772;38.224;2022-08-05T04:15:51;39.28;;;25.92;;
58240;SDS011;45058;55.772;38.224;2022-08-05T04:18:17;34.75;;;25.48;;
58240;SDS011;45058;55.772;38.224;2022-08-05T04:20:43;35.42;;;25.42;;
58240;SDS011;45058;55.772;38.224;2022-08-05T04:23:09;36.88;;;25.17;;
58240;SDS011;45058;55.772;38.224;2022-08-05T04:25:35;34.25;;;24.45;;
58240;SDS011;45058;55.772;38.224;2022-08-05T04:28:01;38.30;;;25.65;;
58240;SDS011;45058;55.772;38.224;2022-08-05T04:30:28;37.20;;;24.63;;
58240;SDS011;45058;55.772;38.224;2022-08-05T04:32:54;36.55;;;25.13;;
58240;SDS011;45058;55.772;38.224;2022-08-05T04:35:20;33.88;;;23.48;;
58240;SDS011;45058;55.772;38.224;2022-08-05T04:37:46;28.85;;;23.33;;
58240;SDS011;45058;55.772;38.224;2022-08-05T04:40:12;41.17;;;24.65;;
58240;SDS011;45058;55.772;38.224;2022-08-05T04:42:38;30.33;;;22.67;;
58240;SDS011;45058;55.772;38.224;2022-08-05T04:45:04;27.38;;;23.08;;
58240;SDS011;45058;55.772;38.224;2022-08-05T04:47:30;29.48;;;22.95;;
58240;SDS011;45058;55.772;38.224;2022-08-05T04:49:56;28.38;;;22.38;;
58240;SDS011;45058;55.772;38.224;2022-08-05T04:52:22;30.90;;;21.55;;
58240;SDS011;45058;55.772;38.224;2022-08-05T04:54:48;31.50;;;21.48;;
58240;SDS011;45058;55.772;38.224;2022-08-05T04:57:14;31.27;;;20.45;;
58240;SDS011;45058;55.772;38.224;2022-08-05T04:59:40;24.48;;;20.83;;
58240;SDS011;45058;55.772;38.224;2022-08-05T05:02:06;27.90;;;19.73;;
58240;SDS011;45058;55.772;38.224;2022-08-05T05:04:32;27.75;;;18.92;;
58240;SDS011;45058;55.772;38.224;2022-08-05T05:06:58;26.33;;;19.25;;
58240;SDS011;45058;55.772;38.224;2022-08-05T05:09:24;31.30;;;18.30;;
58240;SDS011;45058;55.772;38.224;2022-08-05T05:11:50;19.75;;;16.40;;
58240;SDS011;45058;55.772;38.224;2022-08-05T05:14:16;26.65;;;16.80;;
58240;SDS011;45058;55.772;38.224;2022-08-05T05:16:42;24.83;;;15.50;;
58240;SDS011;45058;55.772;38.224;2022-08-05T05:19:08;23.15;;;15.30;;
58240;SDS011;45058;55.772;38.224;2022-08-05T05:21:34;22.00;;;16.02;;
58240;SDS011;45058;55.772;38.224;2022-08-05T05:24:00;27.08;;;15.73;;
58240;SDS011;45058;55.772;38.224;2022-08-05T05:26:26;21.27;;;14.35;;
58240;SDS011;45058;55.772;38.224;2022-08-05T05:28:52;19.95;;;15.20;;
58240;SDS011;45058;55.772;38.224;2022-08-05T05:31:18;17.02;;;12.35;;
58240;SDS011;45058;55.772;38.224;2022-08-05T05:33:44;18.50;;;12.95;;
58240;SDS011;45058;55.772;38.224;2022-08-05T05:36:10;17.42;;;12.32;;
58240;SDS011;45058;55.772;38.224;2022-08-05T05:38:36;14.15;;;11.95;;
58240;SDS011;45058;55.772;38.224;2022-08-05T05:41:02;22.50;;;11.80;;
58240;SDS011;45058;55.772;38.224;2022-08-05T05:43:28;13.38;;;9.68;;
58240;SDS011;45058;55.772;38.224;2022-08-05T05:45:54;13.13;;;10.23;;
58240;SDS011;45058;55.772;38.224;2022-08-05T05:48:20;15.73;;;10.95;;
58240;SDS011;45058;55.772;38.224;2022-08-05T05:50:46;15.93;;;9.07;;
58240;SDS011;45058;55.772;38.224;2022-08-05T05:53:12;24.63;;;9.80;;
58240;SDS011;45058;55.772;38.224;2022-08-05T05:55:39;13.85;;;10.15;;
58240;SDS011;45058;55.772;38.224;2022-08-05T05:58:05;15.85;;;9.68;;
58240;SDS011;45058;55.772;38.224;2022-08-05T06:00:31;21.23;;;9.45;;
58240;SDS011;45058;55.772;38.224;2022-08-05T06:02:58;17.70;;;9.38;;
58240;SDS011;45058;55.772;38.224;2022-08-05T06:05:26;15.38;;;8.90;;
58240;SDS011;45058;55.772;38.224;2022-08-05T06:07:52;14.32;;;9.38;;
58240;SDS011;45058;55.772;38.224;2022-08-05T06:10:18;16.20;;;8.13;;
58240;SDS011;45058;55.772;38.224;2022-08-05T06:12:44;19.63;;;8.77;;
58240;SDS011;45058;55.772;38.224;2022-08-05T06:15:10;16.10;;;8.05;;
58240;SDS011;45058;55.772;38.224;2022-08-05T06:17:36;17.48;;;7.53;;
58240;SDS011;45058;55.772;38.224;2022-08-05T06:20:03;13.52;;;8.63;;
58240;SDS011;45058;55.772;38.224;2022-08-05T06:22:30;12.30;;;8.65;;
58240;SDS011;45058;55.772;38.224;2022-08-05T06:24:57;12.23;;;7.93;;
58240;SDS011;45058;55.772;38.224;2022-08-05T06:27:24;11.98;;;7.45;;
58240;SDS011;45058;55.772;38.224;2022-08-05T06:29:50;15.50;;;8.15;;
58240;SDS011;45058;55.772;38.224;2022-08-05T06:32:16;18.35;;;7.57;;
58240;SDS011;45058;55.772;38.224;2022-08-05T06:34:42;13.00;;;7.47;;
58240;SDS011;45058;55.772;38.224;2022-08-05T06:37:08;18.67;;;7.68;;
58240;SDS011;45058;55.772;38.224;2022-08-05T06:39:34;14.35;;;6.15;;
58240;SDS011;45058;55.772;38.224;2022-08-05T06:42:00;12.60;;;6.15;;
58240;SDS011;45058;55.772;38.224;2022-08-05T06:44:29;10.00;;;5.63;;
58240;SDS011;45058;55.772;38.224;2022-08-05T06:46:55;9.60;;;6.18;;
58240;SDS011;45058;55.772;38.224;2022-08-05T06:49:22;9.85;;;5.60;;
58240;SDS011;45058;55.772;38.224;2022-08-05T06:51:49;8.10;;;5.85;;
58240;SDS011;45058;55.772;38.224;2022-08-05T06:54:15;10.40;;;7.10;;
58240;SDS011;45058;55.772;38.224;2022-08-05T06:56:41;12.20;;;5.95;;
58240;SDS011;45058;55.772;38.224;2022-08-05T06:59:07;11.15;;;5.68;;
58240;SDS011;45058;55.772;38.224;2022-08-05T07:01:34;8.57;;;5.88;;
58240;SDS011;45058;55.772;38.224;2022-08-05T07:04:00;15.93;;;6.53;;
58240;SDS011;45058;55.772;38.224;2022-08-05T07:06:26;9.68;;;6.45;;
58240;SDS011;45058;55.772;38.224;2022-08-05T07:08:52;14.43;;;6.00;;
58240;SDS011;45058;55.772;38.224;2022-08-05T07:11:18;11.30;;;6.05;;
58240;SDS011;45058;55.772;38.224;2022-08-05T07:13:44;12.82;;;6.88;;
58240;SDS011;45058;55.772;38.224;2022-08-05T07:16:29;8.23;;;6.40;;
58240;SDS011;45058;55.772;38.224;2022-08-05T07:19:17;12.40;;;6.20;;
58240;SDS011;45058;55.772;38.224;2022-08-05T07:21:45;9.55;;;5.60;;
58240;SDS011;45058;55.772;38.224;2022-08-05T07:24:12;7.63;;;5.90;;
58240;SDS011;45058;55.772;38.224;2022-08-05T07:26:38;11.63;;;5.80;;
58240;SDS011;45058;55.772;38.224;2022-08-05T07:29:05;10.40;;;5.45;;
58240;SDS011;45058;55.772;38.224;2022-08-05T07:31:31;10.63;;;6.28;;
58240;SDS011;45058;55.772;38.224;2022-08-05T07:33:59;10.20;;;6.03;;
58240;SDS011;45058;55.772;38.224;2022-08-05T07:36:25;6.50;;;5.88;;
58240;SDS011;45058;55.772;38.224;2022-08-05T07:38:52;9.38;;;6.25;;
58240;SDS011;45058;55.772;38.224;2022-08-05T07:41:19;10.48;;;6.40;;
58240;SDS011;45058;55.772;38.224;2022-08-05T07:43:46;12.70;;;6.65;;
58240;SDS011;45058;55.772;38.224;2022-08-05T07:46:12;11.30;;;6.75;;
58240;SDS011;45058;55.772;38.224;2022-08-05T07:48:38;6.32;;;5.70;;
58240;SDS011;45058;55.772;38.224;2022-08-05T07:51:04;9.77;;;6.80;;
58240;SDS011;45058;55.772;38.224;2022-08-05T07:53:30;10.82;;;6.50;;
58240;SDS011;45058;55.772;38.224;2022-08-05T07:55:56;11.05;;;6.97;;
58240;SDS011;45058;55.772;38.224;2022-08-05T07:58:22;14.20;;;8.27;;
58240;SDS011;45058;55.772;38.224;2022-08-05T08:00:48;8.90;;;7.32;;
58240;SDS011;45058;55.772;38.224;2022-08-05T08:03:15;11.73;;;8.20;;
58240;SDS011;45058;55.772;38.224;2022-08-05T08:05:41;11.27;;;8.38;;
58240;SDS011;45058;55.772;38.224;2022-08-05T08:08:09;8.55;;;7.68;;
58240;SDS011;45058;55.772;38.224;2022-08-05T08:10:35;21.70;;;9.63;;
58240;SDS011;45058;55.772;38.224;2022-08-05T08:13:02;17.75;;;8.98;;
58240;SDS011;45058;55.772;38.224;2022-08-05T08:15:28;12.93;;;8.73;;
58240;SDS011;45058;55.772;38.224;2022-08-05T08:17:55;14.15;;;8.73;;
58240;SDS011;45058;55.772;38.224;2022-08-05T08:20:21;14.60;;;9.10;;
58240;SDS011;45058;55.772;38.224;2022-08-05T08:22:51;18.80;;;9.93;;
58240;SDS011;45058;55.772;38.224;2022-08-05T08:25:22;15.25;;;9.18;;
58240;SDS011;45058;55.772;38.224;2022-08-05T08:27:48;18.50;;;9.25;;
58240;SDS011;45058;55.772;38.224;2022-08-05T08:30:14;12.05;;;9.48;;
58240;SDS011;45058;55.772;38.224;2022-08-05T08:32:41;12.93;;;9.77;;
58240;SDS011;45058;55.772;38.224;2022-08-05T08:35:09;13.40;;;9.70;;
58240;SDS011;45058;55.772;38.224;2022-08-05T08:37:35;12.32;;;9.57;;
58240;SDS011;45058;55.772;38.224;2022-08-05T08:40:01;20.88;;;10.10;;
58240;SDS011;45058;55.772;38.224;2022-08-05T08:42:29;16.65;;;9.30;;
58240;SDS011;45058;55.772;38.224;2022-08-05T08:44:55;19.63;;;9.65;;
58240;SDS011;45058;55.772;38.224;2022-08-05T08:47:23;17.50;;;9.55;;
58240;SDS011;45058;55.772;38.224;2022-08-05T08:49:51;15.95;;;9.45;;
58240;SDS011;45058;55.772;38.224;2022-08-05T08:52:22;10.27;;;9.25;;
58240;SDS011;45058;55.772;38.224;2022-08-05T08:54:50;9.82;;;8.82;;
58240;SDS011;45058;55.772;38.224;2022-08-05T08:57:18;12.35;;;8.20;;
58240;SDS011;45058;55.772;38.224;2022-08-05T08:59:44;11.10;;;9.00;;
58240;SDS011;45058;55.772;38.224;2022-08-05T09:02:10;13.80;;;9.43;;
58240;SDS011;45058;55.772;38.224;2022-08-05T09:04:37;12.80;;;8.65;;
58240;SDS011;45058;55.772;38.224;2022-08-05T09:07:04;17.58;;;9.27;;
58240;SDS011;45058;55.772;38.224;2022-08-05T09:09:31;15.60;;;8.10;;
58240;SDS011;45058;55.772;38.224;2022-08-05T09:11:59;11.85;;;7.60;;
58240;SDS011;45058;55.772;38.224;2022-08-05T09:14:25;10.02;;;7.22;;
58240;SDS011;45058;55.772;38.224;2022-08-05T09:16:51;8.23;;;6.65;;
58240;SDS011;45058;55.772;38.224;2022-08-05T09:19:17;13.23;;;7.15;;
58240;SDS011;45058;55.772;38.224;2022-08-05T09:21:44;15.65;;;7.18;;
58240;SDS011;45058;55.772;38.224;2022-08-05T09:24:10;12.13;;;7.28;;
58240;SDS011;45058;55.772;38.224;2022-08-05T09:26:37;20.38;;;7.38;;
58240;SDS011;45058;55.772;38.224;2022-08-05T09:29:06;11.02;;;6.30;;
58240;SDS011;45058;55.772;38.224;2022-08-05T09:31:33;12.15;;;7.07;;
58240;SDS011;45058;55.772;38.224;2022-08-05T09:34:01;9.30;;;6.68;;
58240;SDS011;45058;55.772;38.224;2022-08-05T09:36:45;12.73;;;6.78;;
58240;SDS011;45058;55.772;38.224;2022-08-05T09:39:16;9.35;;;6.47;;
58240;SDS011;45058;55.772;38.224;2022-08-05T09:41:58;9.00;;;6.50;;
58240;SDS011;45058;55.772;38.224;2022-08-05T09:44:36;10.20;;;6.25;;
58240;SDS011;45058;55.772;38.224;2022-08-05T09:47:09;9.73;;;6.90;;
58240;SDS011;45058;55.772;38.224;2022-08-05T09:49:46;16.73;;;7.88;;
58240;SDS011;45058;55.772;38.224;2022-08-05T09:52:22;14.38;;;7.28;;
58240;SDS011;45058;55.772;38.224;2022-08-05T09:54:53;13.60;;;7.60;;
58240;SDS011;45058;55.772;38.224;2022-08-05T10:00:14;11.43;;;6.32;;
58240;SDS011;45058;55.772;38.224;2022-08-05T10:02:46;8.88;;;6.53;;
58240;SDS011;45058;55.772;38.224;2022-08-05T10:05:18;8.98;;;6.47;;
58240;SDS011;45058;55.772;38.224;2022-08-05T10:07:53;8.68;;;6.70;;
58240;SDS011;45058;55.772;38.224;2022-08-05T10:12:50;9.00;;;6.72;;
58240;SDS011;45058;55.772;38.224;2022-08-05T10:15:22;10.40;;;6.75;;
58240;SDS011;45058;55.772;38.224;2022-08-05T10:20:38;8.18;;;6.50;;
58240;SDS011;45058;55.772;38.224;2022-08-05T10:23:13;9.63;;;6.57;;
58240;SDS011;45058;55.772;38.224;2022-08-05T10:25:41;8.85;;;7.03;;
58240;SDS011;45058;55.772;38.224;2022-08-05T10:28:07;9.10;;;6.90;;
58240;SDS011;45058;55.772;38.224;2022-08-05T10:30:34;10.77;;;6.43;;
58240;SDS011;45058;55.772;38.224;2022-08-05T10:33:01;7.57;;;6.72;;
58240;SDS011;45058;55.772;38.224;2022-08-05T10:35:27;13.55;;;6.57;;
58240;SDS011;45058;55.772;38.224;2022-08-05T10:37:54;8.65;;;6.43;;
58240;SDS011;45058;55.772;38.224;2022-08-05T10:40:37;12.02;;;6.63;;
58240;SDS011;45058;55.772;38.224;2022-08-05T10:43:23;11.50;;;6.15;;
58240;SDS011;45058;55.772;38.224;2022-08-05T10:46:11;8.68;;;6.05;;
58240;SDS011;45058;55.772;38.224;2022-08-05T10:48:45;6.88;;;6.05;;
58240;SDS011;45058;55.772;38.224;2022-08-05T10:51:13;26.17;;;6.93;;
58240;SDS011;45058;55.772;38.224;2022-08-05T10:53:51;17.05;;;6.90;;
58240;SDS011;45058;55.772;38.224;2022-08-05T10:56:22;14.13;;;6.20;;
58240;SDS011;45058;55.772;38.224;2022-08-05T11:04:15;9.82;;;6.10;;
58240;SDS011;45058;55.772;38.224;2022-08-05T11:17:36;10.95;;;7.28;;
58240;SDS011;45058;55.772;38.224;2022-08-05T11:20:03;12.20;;;6.55;;
58240;SDS011;45058;55.772;38.224;2022-08-05T11:25:32;24.38;;;7.82;;
58240;SDS011;45058;55.772;38.224;2022-08-05T11:33:37;13.00;;;6.85;;
58240;SDS011;45058;55.772;38.224;2022-08-05T11:39:16;13.43;;;6.93;;
58240;SDS011;45058;55.772;38.224;2022-08-05T11:42:15;53.45;;;9.40;;
58240;SDS011;45058;55.772;38.224;2022-08-05T11:44:42;19.40;;;8.05;;
58240;SDS011;45058;55.772;38.224;2022-08-05T11:47:08;10.63;;;6.13;;
58240;SDS011;45058;55.772;38.224;2022-08-05T11:49:34;16.60;;;6.10;;
58240;SDS011;45058;55.772;38.224;2022-08-05T11:52:00;18.52;;;6.60;;
58240;SDS011;45058;55.772;38.224;2022-08-05T11:54:27;13.25;;;6.50;;
58240;SDS011;45058;55.772;38.224;2022-08-05T11:56:55;11.80;;;7.15;;
58240;SDS011;45058;55.772;38.224;2022-08-05T11:59:25;12.65;;;6.30;;
58240;SDS011;45058;55.772;38.224;2022-08-05T12:04:27;10.95;;;5.93;;
58240;SDS011;45058;55.772;38.224;2022-08-05T12:06:57;8.82;;;6.38;;
58240;SDS011;45058;55.772;38.224;2022-08-05T12:09:24;8.38;;;6.28;;
58240;SDS011;45058;55.772;38.224;2022-08-05T12:11:52;7.78;;;6.45;;
58240;SDS011;45058;55.772;38.224;2022-08-05T12:14:18;16.35;;;6.72;;
58240;SDS011;45058;55.772;38.224;2022-08-05T12:16:45;17.20;;;6.55;;
58240;SDS011;45058;55.772;38.224;2022-08-05T12:19:12;8.13;;;6.00;;
58240;SDS011;45058;55.772;38.224;2022-08-05T12:21:43;13.73;;;6.18;;
58240;SDS011;45058;55.772;38.224;2022-08-05T12:24:13;10.00;;;5.82;;
58240;SDS011;45058;55.772;38.224;2022-08-05T12:26:50;10.23;;;5.80;;
58240;SDS011;45058;55.772;38.224;2022-08-05T12:29:24;14.95;;;6.22;;
58240;SDS011;45058;55.772;38.224;2022-08-05T12:31:53;20.98;;;6.10;;
58240;SDS011;45058;55.772;38.224;2022-08-05T12:34:21;8.63;;;5.35;;
58240;SDS011;45058;55.772;38.224;2022-08-05T12:36:51;20.17;;;6.28;;
58240;SDS011;45058;55.772;38.224;2022-08-05T12:39:18;7.90;;;5.80;;
58240;SDS011;45058;55.772;38.224;2022-08-05T12:41:44;6.30;;;5.60;;
58240;SDS011;45058;55.772;38.224;2022-08-05T12:44:11;12.85;;;5.80;;
58240;SDS011;45058;55.772;38.224;2022-08-05T12:46:39;17.13;;;6.10;;
58240;SDS011;45058;55.772;38.224;2022-08-05T12:52:10;14.77;;;5.60;;
58240;SDS011;45058;55.772;38.224;2022-08-05T12:54:31;12.02;;;5.50;;
